Time;durP1;ratioP1;P1;durP2;ratioP2;P2;SDS_P1;SDS_P2;PMS_P1;PMS_P2;Temp;Humidity;BMP_temperature;BMP_pressure;BME280_temperature;BME280_humidity;BME280_pressure;Samples;Min_cycle;Max_cycle;Signal;HPM_P1;HPM_P2
2022/05/26 00:00:09;;;;;;;;;1.00;1.00;;;;;17.40;57.65;101602.00;5050086;28;45671;-54
2022/05/26 00:02:35;;;;;;;;;1.60;1.60;;;;;17.38;57.62;101604.19;5038785;28;46165;-51
2022/05/26 00:05:00;;;;;;;;;1.00;1.00;;;;;17.39;57.69;101593.94;5032226;28;45616;-54
2022/05/26 00:07:26;;;;;;;;;1.00;1.00;;;;;17.34;57.93;101600.19;5035176;28;45867;-54
2022/05/26 00:09:51;;;;;;;;;1.00;1.00;;;;;17.15;58.73;101603.03;5035614;28;45437;-57
2022/05/26 00:12:19;;;;;;;;;2.00;2.00;;;;;17.23;58.38;101603.78;5033902;28;46643;-56
2022/05/26 00:14:45;;;;;;;;;2.20;1.60;;;;;17.12;58.44;101595.19;5035335;28;45450;-57
2022/05/26 00:17:10;;;;;;;;;1.00;1.00;;;;;17.10;58.89;101608.44;5035488;28;45424;-50
2022/05/26 00:19:36;;;;;;;;;1.00;1.00;;;;;17.11;59.45;101618.44;5034360;28;45414;-54
2022/05/26 00:22:01;;;;;;;;;3.50;3.00;;;;;17.02;59.24;101600.47;5027187;28;46304;-58
2022/05/26 00:24:27;;;;;;;;;1.00;1.00;;;;;17.15;58.20;101608.59;5053819;28;45323;-57
2022/05/26 00:26:52;;;;;;;;;2.00;0.75;;;;;17.19;58.72;101609.78;5052444;28;45379;-55
2022/05/26 00:29:18;;;;;;;;;0.75;0.75;;;;;17.23;58.66;101607.41;5055579;28;45590;-58
2022/05/26 00:31:43;;;;;;;;;1.75;1.00;;;;;17.28;58.45;101606.72;5054169;28;45624;-56
2022/05/26 00:34:09;;;;;;;;;2.00;2.00;;;;;17.12;58.32;101575.75;5055256;28;45598;-56
2022/05/26 00:36:44;;;;;;;;;2.75;1.25;;;;;17.26;58.31;101598.63;5054252;28;45374;-54
2022/05/26 00:39:22;;;;;;;;;1.20;1.20;;;;;17.30;58.50;101610.91;5055509;28;45421;-58
2022/05/26 00:41:56;;;;;;;;;3.00;1.00;;;;;17.31;58.02;101618.19;5055475;28;45438;-55
2022/05/26 00:44:21;;;;;;;;;1.00;1.00;;;;;17.29;57.77;101619.50;5053441;28;45640;-55
2022/05/26 00:46:56;;;;;;;;;2.00;1.00;;;;;17.29;58.10;101614.78;5054153;28;45417;-56
2022/05/26 00:49:26;;;;;;;;;0.80;0.80;;;;;17.03;57.97;101572.47;5052009;28;45495;-58
2022/05/26 00:51:51;;;;;;;;;0.00;0.00;;;;;17.29;58.08;101613.94;5033940;28;45288;-53
2022/05/26 00:54:19;;;;;;;;;1.00;1.00;;;;;17.29;57.95;101620.31;5033639;28;45367;-56
2022/05/26 00:56:50;;;;;;;;;0.20;0.20;;;;;17.25;57.83;101621.03;5035080;28;45359;-56
2022/05/26 00:59:40;;;;;;;;;0.00;0.00;;;;;17.26;57.84;101611.63;5034898;28;45959;-58
2022/05/26 01:02:05;;;;;;;;;0.00;0.00;;;;;17.11;57.98;101612.03;5034704;28;46731;-55
2022/05/26 01:04:38;;;;;;;;;0.00;0.00;;;;;17.12;58.21;101608.22;5038513;28;45326;-56
2022/05/26 01:07:19;;;;;;;;;1.00;1.00;;;;;17.12;57.91;101614.59;5038919;28;45826;-53
2022/05/26 01:09:45;;;;;;;;;0.00;0.00;;;;;17.07;57.52;101603.34;5020984;28;45520;-55
2022/05/26 01:12:11;;;;;;;;;1.40;0.40;;;;;17.06;57.88;101626.63;5038413;28;46027;-53
2022/05/26 01:14:51;;;;;;;;;2.00;1.00;;;;;17.09;58.19;101619.75;5036999;28;45403;-54
2022/05/26 01:17:40;;;;;;;;;0.40;0.40;;;;;17.14;57.38;101623.50;5020953;28;45327;-58
2022/05/26 01:20:44;;;;;;;;;1.80;0.60;;;;;17.14;57.73;101628.25;5037309;28;45489;-58
2022/05/26 01:23:53;;;;;;;;;1.00;1.00;;;;;17.10;57.85;101625.09;5018156;28;46183;-56
2022/05/26 01:26:19;;;;;;;;;1.00;1.00;;;;;17.05;58.43;101623.03;5037531;28;45307;-53
2022/05/26 01:29:03;;;;;;;;;1.00;1.00;;;;;17.10;57.81;101627.88;5038451;28;45819;-55
2022/05/26 01:32:19;;;;;;;;;0.60;0.60;;;;;17.06;58.25;101630.25;5038945;28;45290;-52
2022/05/26 01:34:56;;;;;;;;;2.00;1.40;;;;;16.96;58.52;101626.31;5015551;28;46223;-54
2022/05/26 01:37:39;;;;;;;;;0.00;0.00;;;;;16.51;58.75;101554.38;5035297;28;45523;-57
2022/05/26 01:40:22;;;;;;;;;1.00;1.00;;;;;16.88;58.72;101614.47;5036790;28;45276;-56
2022/05/26 01:43:06;;;;;;;;;0.00;0.00;;;;;16.91;58.63;101632.53;5022062;28;45622;-54
2022/05/26 01:45:40;;;;;;;;;0.20;0.20;;;;;16.96;58.66;101632.69;5020969;28;45450;-53
2022/05/26 01:48:15;;;;;;;;;2.00;1.00;;;;;16.96;58.50;101631.88;5020053;28;45450;-56
2022/05/26 01:50:46;;;;;;;;;0.40;0.00;;;;;16.96;58.88;101626.31;5037075;28;45439;-57
2022/05/26 01:53:25;;;;;;;;;1.60;0.40;;;;;17.01;58.89;101631.97;5038362;28;45405;-52
2022/05/26 01:55:56;;;;;;;;;1.00;1.00;;;;;16.78;58.64;101598.38;5036732;28;45431;-56
2022/05/26 01:58:43;;;;;;;;;2.00;1.00;;;;;16.90;59.20;101633.63;5038122;28;45720;-58
2022/05/26 02:01:14;;;;;;;;;2.60;2.60;;;;;16.76;59.10;101592.22;5016563;28;45765;-54
2022/05/26 02:03:40;;;;;;;;;3.40;2.00;;;;;17.00;59.12;101627.53;5036078;28;45568;-60
2022/05/26 02:06:08;;;;;;;;;1.00;1.00;;;;;16.92;58.95;101629.53;5031548;28;46300;-58
2022/05/26 02:08:37;;;;;;;;;1.00;1.00;;;;;16.89;59.32;101626.38;5037662;28;45402;-58
2022/05/26 02:11:09;;;;;;;;;2.20;1.00;;;;;16.65;59.45;101591.06;5020459;28;45415;-50
2022/05/26 02:13:58;;;;;;;;;1.00;1.00;;;;;16.85;59.31;101631.56;5019793;28;45535;-58
2022/05/26 02:16:45;;;;;;;;;4.00;1.00;;;;;16.58;59.53;101601.41;5037467;28;45337;-53
2022/05/26 02:19:19;;;;;;;;;0.60;0.60;;;;;16.55;59.95;101612.97;5036221;28;45440;-56
2022/05/26 02:22:11;;;;;;;;;1.00;1.00;;;;;16.71;60.06;101630.03;5036532;28;45228;-56
2022/05/26 02:24:41;;;;;;;;;1.00;1.00;;;;;16.74;60.08;101633.19;5034947;28;45449;-52
2022/05/26 02:27:07;;;;;;;;;0.60;0.60;;;;;16.73;59.65;101637.03;5037460;28;45535;-58
2022/05/26 02:32:20;;;;;;;;;1.20;0.00;;;;;16.38;60.24;101599.69;5036330;28;45285;-57
2022/05/26 02:34:46;;;;;;;;;3.40;2.20;;;;;16.65;60.11;101638.19;5036256;28;45502;-52
2022/05/26 02:37:11;;;;;;;;;0.00;0.00;;;;;16.65;59.82;101638.19;5035955;28;46418;-58
2022/05/26 02:39:37;;;;;;;;;2.25;1.00;;;;;16.73;59.61;101634.28;5035997;28;45409;-56
2022/05/26 02:42:03;;;;;;;;;2.50;1.50;;;;;16.63;59.82;101634.81;5037718;28;45377;-54
2022/05/26 02:44:29;;;;;;;;;1.00;1.00;;;;;16.70;59.93;101634.72;5035858;28;45583;-51
2022/05/26 02:47:14;;;;;;;;;0.00;0.00;;;;;16.69;60.07;101637.75;5035846;28;45256;-54
2022/05/26 02:49:53;;;;;;;;;0.40;0.40;;;;;16.53;59.69;101601.25;5037017;28;45310;-58
2022/05/26 02:52:37;;;;;;;;;2.00;1.00;;;;;16.76;59.65;101633.78;5035862;28;45470;-53
2022/05/26 02:55:35;;;;;;;;;1.60;1.60;;;;;16.80;59.58;101640.56;5036178;28;45882;-56
2022/05/26 02:58:11;;;;;;;;;2.00;2.00;;;;;16.83;59.59;101646.72;5032656;28;46349;-56
2022/05/26 03:00:56;;;;;;;;;2.40;1.00;;;;;16.79;59.51;101638.88;5035267;28;45449;-52
2022/05/26 03:03:33;;;;;;;;;4.80;0.80;;;;;16.80;59.59;101639.72;5020626;28;45521;-58
2022/05/26 03:06:21;;;;;;;;;0.60;0.60;;;;;16.77;59.01;101634.66;5035686;28;45256;-53
2022/05/26 03:08:47;;;;;;;;;0.00;0.00;;;;;16.73;60.08;101631.50;5035172;28;45550;-52
2022/05/26 03:11:18;;;;;;;;;0.75;0.25;;;;;16.82;59.75;101642.25;5035244;28;45768;-58
2022/05/26 03:13:43;;;;;;;;;1.40;1.00;;;;;16.72;60.01;101627.03;5035452;28;45300;-57
2022/05/26 03:16:09;;;;;;;;;1.00;1.00;;;;;16.78;59.83;101636.34;5037021;28;45345;-50
2022/05/26 03:18:35;;;;;;;;;0.00;0.00;;;;;16.81;59.74;101644.19;5036345;28;46253;-57
2022/05/26 03:21:01;;;;;;;;;3.80;2.60;;;;;16.80;59.99;101636.94;5035025;28;45288;-57
2022/05/26 03:23:27;;;;;;;;;1.00;1.00;;;;;16.61;60.02;101605.63;5036252;28;45409;-53
2022/05/26 03:25:58;;;;;;;;;3.50;1.00;;;;;16.65;60.33;101638.19;5034960;28;45458;-55
2022/05/26 03:28:24;;;;;;;;;1.00;1.00;;;;;16.70;60.01;101645.81;5035174;28;45453;-55
2022/05/26 03:30:50;;;;;;;;;1.00;1.00;;;;;16.71;60.55;101652.22;5035895;28;45248;-57
2022/05/26 03:33:16;;;;;;;;;1.75;1.75;;;;;16.69;60.11;101652.44;5036470;28;45264;-58
2022/05/26 03:41:09;;;;;;;;;2.60;0.60;;;;;16.11;60.48;101572.28;5036016;28;45419;-53
2022/05/26 03:43:40;;;;;;;;;1.25;0.25;;;;;16.55;60.58;101661.97;5035999;28;45296;-54
2022/05/26 03:46:06;;;;;;;;;1.20;1.20;;;;;16.44;60.67;101652.50;5034847;28;45459;-57
2022/05/26 03:48:31;;;;;;;;;3.50;1.00;;;;;16.54;60.79;101669.44;5034600;28;45455;-51
2022/05/26 03:50:57;;;;;;;;;0.75;0.75;;;;;16.47;60.87;101668.66;5035718;28;45329;-57
2022/05/26 03:53:23;;;;;;;;;0.40;0.40;;;;;16.35;61.13;101644.50;5035017;28;45407;-60
2022/05/26 03:55:49;;;;;;;;;0.00;0.00;;;;;16.58;61.76;101669.81;5035873;28;45655;-58
2022/05/26 03:58:14;;;;;;;;;0.00;0.00;;;;;16.56;61.98;101672.84;5034635;28;48401;-53
2022/05/26 04:00:40;;;;;;;;;1.00;1.00;;;;;16.58;61.75;101675.34;5010973;28;45360;-54
2022/05/26 04:03:05;;;;;;;;;0.75;0.75;;;;;16.55;62.15;101673.91;5031860;28;45926;-54
2022/05/26 04:05:31;;;;;;;;;4.00;1.00;;;;;16.55;62.34;101670.28;5034471;28;45269;-58
2022/05/26 04:07:57;;;;;;;;;1.00;1.00;;;;;16.53;62.21;101679.69;5035415;28;46967;-54
2022/05/26 04:10:22;;;;;;;;;2.00;1.00;;;;;16.55;61.82;101687.78;5035578;28;45508;-53
2022/05/26 04:12:48;;;;;;;;;0.00;0.00;;;;;16.52;61.43;101682.69;5035866;28;45818;-55
2022/05/26 04:15:14;;;;;;;;;1.25;1.25;;;;;16.44;61.51;101660.81;5034408;28;45513;-56
2022/05/26 04:17:39;;;;;;;;;1.00;1.00;;;;;16.35;60.86;101652.81;5034408;28;45480;-58
2022/05/26 04:20:06;;;;;;;;;1.00;0.00;;;;;16.60;60.51;101693.44;5035124;28;45322;-54
2022/05/26 04:22:32;;;;;;;;;1.20;1.20;;;;;16.46;60.55;101664.19;5035263;28;45561;-55
2022/05/26 04:24:58;;;;;;;;;0.75;0.75;;;;;16.54;60.36;101686.06;5035665;28;45672;-53
2022/05/26 04:27:26;;;;;;;;;3.00;1.75;;;;;16.53;60.48;101690.78;5035247;28;45981;-57
2022/05/26 04:29:52;;;;;;;;;0.60;0.60;;;;;16.52;60.18;101683.53;5035215;28;45250;-53
2022/05/26 04:32:18;;;;;;;;;2.80;1.00;;;;;16.62;60.26;101696.00;5034282;28;45509;-56
2022/05/26 04:34:45;;;;;;;;;1.00;1.00;;;;;16.62;60.24;101705.19;5035594;28;45462;-60
2022/05/26 04:37:11;;;;;;;;;0.20;0.20;;;;;16.43;60.33;101667.44;5035894;28;45428;-58
2022/05/26 04:39:36;;;;;;;;;1.00;1.00;;;;;16.58;60.54;101703.94;5038967;28;45327;-58
2022/05/26 04:42:03;;;;;;;;;3.25;0.75;;;;;16.59;60.56;101708.38;5038900;28;45307;-55
2022/05/26 04:44:31;;;;;;;;;1.00;1.00;;;;;16.62;60.32;101705.19;5038942;28;45504;-52
2022/05/26 04:46:56;;;;;;;;;1.00;1.00;;;;;16.51;60.41;101708.69;5037588;28;45723;-56
2022/05/26 04:49:22;;;;;;;;;0.00;0.00;;;;;16.50;60.42;101712.53;5038804;28;45384;-51
2022/05/26 04:51:47;;;;;;;;;1.75;0.75;;;;;16.44;60.68;101724.53;5038742;28;45569;-56
2022/05/26 04:54:12;;;;;;;;;0.00;0.00;;;;;16.50;60.46;101721.69;5038598;28;45578;-56
2022/05/26 04:56:38;;;;;;;;;0.50;0.50;;;;;16.54;60.43;101724.84;5038479;28;45421;-56
2022/05/26 04:59:07;;;;;;;;;1.00;1.00;;;;;16.38;60.55;101695.81;5038485;28;45432;-51
2022/05/26 05:01:32;;;;;;;;;1.40;1.40;;;;;16.57;60.47;101729.09;5038403;28;45353;-50
2022/05/26 05:04:00;;;;;;;;;1.00;1.00;;;;;16.55;60.14;101725.72;5039190;28;45346;-56
2022/05/26 05:06:25;;;;;;;;;2.00;1.00;;;;;16.45;60.93;101735.41;5034201;28;45410;-56
2022/05/26 05:08:51;;;;;;;;;1.00;1.00;;;;;16.51;60.82;101725.31;5051635;28;45187;-55
2022/05/26 05:11:16;;;;;;;;;2.00;0.50;;;;;16.48;60.38;101723.84;5058530;28;45298;-53
2022/05/26 05:13:42;;;;;;;;;2.00;1.00;;;;;16.52;60.74;101730.66;5058166;28;45264;-58
2022/05/26 05:16:31;;;;;;;;;0.00;0.00;;;;;16.49;60.24;101731.09;5056390;28;46766;-57
2022/05/26 05:18:56;;;;;;;;;1.00;1.00;;;;;16.37;60.84;101742.06;5041749;28;45256;-57
2022/05/26 05:21:25;;;;;;;;;0.00;0.00;;;;;16.39;60.85;101745.44;5049368;28;45385;-53
2022/05/26 05:23:59;;;;;;;;;0.20;0.20;;;;;16.42;60.75;101733.06;5057695;28;45523;-58
2022/05/26 05:26:24;;;;;;;;;0.00;0.00;;;;;16.44;60.27;101743.94;5057261;28;46729;-55
2022/05/26 05:28:53;;;;;;;;;2.00;0.50;;;;;16.40;60.48;101736.06;5057689;28;45268;-56
2022/05/26 05:31:28;;;;;;;;;1.00;0.40;;;;;16.40;60.76;101727.75;5055106;28;45732;-55
2022/05/26 05:34:00;;;;;;;;;0.60;0.00;;;;;16.49;60.52;101731.09;5056066;28;45572;-58
2022/05/26 05:36:28;;;;;;;;;0.00;0.00;;;;;16.35;60.51;101704.59;5058305;28;46129;-54
2022/05/26 05:38:54;;;;;;;;;1.20;0.40;;;;;16.34;60.25;101702.88;5058454;28;45384;-57
2022/05/26 05:41:20;;;;;;;;;0.50;0.50;;;;;16.61;60.32;101752.50;5057290;28;45390;-59
2022/05/26 05:43:46;;;;;;;;;1.20;1.20;;;;;16.65;59.91;101754.59;5058803;28;45302;-58
2022/05/26 05:46:12;;;;;;;;;1.00;1.00;;;;;16.36;60.01;101718.22;5039929;28;45546;-58
2022/05/26 05:48:37;;;;;;;;;1.50;1.50;;;;;16.65;60.13;101753.75;5055403;28;45280;-55
2022/05/26 05:51:03;;;;;;;;;3.00;2.00;;;;;16.31;59.64;101701.41;5052497;28;45420;-58
2022/05/26 05:53:29;;;;;;;;;3.00;1.50;;;;;16.45;59.59;101715.16;5038626;28;45224;-58
2022/05/26 05:55:54;;;;;;;;;0.00;0.00;;;;;16.74;59.87;101769.00;5036694;28;46190;-55
2022/05/26 05:58:20;;;;;;;;;2.00;0.00;;;;;16.70;59.89;101755.84;5036742;28;45310;-58
2022/05/26 06:00:45;;;;;;;;;1.00;1.00;;;;;16.77;59.87;101767.72;5037361;28;45401;-58
2022/05/26 06:03:11;;;;;;;;;0.00;0.00;;;;;16.77;59.52;101764.94;5037994;28;45299;-57
2022/05/26 06:05:37;;;;;;;;;0.75;0.75;;;;;16.75;59.84;101770.69;5037584;28;46083;-57
2022/05/26 06:08:03;;;;;;;;;1.00;1.00;;;;;16.77;59.43;101765.75;5036021;28;45412;-58
2022/05/26 06:10:29;;;;;;;;;0.80;0.80;;;;;16.76;59.51;101777.09;5037578;28;45463;-55
2022/05/26 06:12:54;;;;;;;;;2.20;2.00;;;;;16.78;59.48;101774.94;5037772;28;45406;-59
2022/05/26 06:15:20;;;;;;;;;1.00;1.00;;;;;16.66;59.20;101750.75;5036338;28;45327;-55
2022/05/26 06:17:45;;;;;;;;;2.00;0.25;;;;;16.79;59.50;101782.19;5037308;28;45318;-59
2022/05/26 06:20:13;;;;;;;;;0.00;0.00;;;;;16.65;59.82;101774.00;5037585;28;45424;-55
2022/05/26 06:22:46;;;;;;;;;0.00;0.00;;;;;16.74;59.68;101793.09;5019823;28;45205;-58
2022/05/26 06:25:12;;;;;;;;;0.00;0.00;;;;;16.72;59.50;101787.81;5035626;28;46980;-48
2022/05/26 06:30:22;;;;;;;;;0.00;0.00;;;;;16.89;59.33;101799.16;5037319;28;45712;-53
2022/05/26 06:38:20;;;;;;;;;0.00;0.00;;;;;16.59;59.42;101791.53;5037140;28;45305;-56
2022/05/26 06:40:46;;;;;;;;;1.00;0.00;;;;;16.59;59.72;101791.53;5037211;28;45822;-49
2022/05/26 06:43:14;;;;;;;;;0.00;0.00;;;;;16.56;59.59;101780.91;5035627;28;45793;-52
2022/05/26 06:45:40;;;;;;;;;1.00;0.60;;;;;16.68;59.69;101808.72;5036795;28;46952;-54
2022/05/26 06:48:06;;;;;;;;;1.00;1.00;;;;;16.84;59.58;101829.47;5036708;28;45396;-57
2022/05/26 06:50:31;;;;;;;;;0.00;0.00;;;;;16.88;59.33;101827.09;5037046;28;45353;-56
2022/05/26 06:52:57;;;;;;;;;0.00;0.00;;;;;16.95;59.03;101819.56;5037156;28;45440;-59
2022/05/26 06:55:22;;;;;;;;;0.50;0.25;;;;;17.05;58.76;101819.06;5036777;28;45418;-54
2022/05/26 06:57:48;;;;;;;;;2.00;0.25;;;;;17.15;58.55;101818.53;5036507;28;45344;-54
2022/05/26 07:00:15;;;;;;;;;0.00;0.00;;;;;17.05;58.90;101824.59;5036020;28;45393;-59
2022/05/26 07:02:41;;;;;;;;;1.00;1.00;;;;;17.13;58.34;101824.31;5036777;28;45474;-60
2022/05/26 07:05:07;;;;;;;;;2.80;1.00;;;;;17.05;57.96;101794.09;5036532;28;45829;-60
2022/05/26 07:07:35;;;;;;;;;0.00;0.00;;;;;17.30;57.81;101832.03;5036382;28;45439;-59
2022/05/26 07:10:00;;;;;;;;;0.00;0.00;;;;;17.25;57.44;101812.44;5036515;28;45398;-59
2022/05/26 07:12:26;;;;;;;;;0.00;0.00;;;;;17.32;57.58;101833.50;5014190;28;45432;-53
2022/05/26 07:14:52;;;;;;;;;0.75;0.00;;;;;17.27;58.15;101832.47;5035974;28;46063;-55
2022/05/26 07:17:17;;;;;;;;;0.75;0.75;;;;;17.26;58.41;101830.78;5036218;28;45398;-59
2022/05/26 07:19:43;;;;;;;;;0.75;0.75;;;;;17.31;58.62;101844.81;5036631;28;45353;-52
2022/05/26 07:22:09;;;;;;;;;0.00;0.00;;;;;17.36;57.71;101844.97;5036519;28;45839;-57
2022/05/26 07:24:34;;;;;;;;;0.00;0.00;;;;;17.40;57.32;101850.91;5036249;28;46560;-56
2022/05/26 07:27:00;;;;;;;;;0.00;0.00;;;;;17.45;57.37;101856.63;5035140;28;45405;-56
2022/05/26 07:29:26;;;;;;;;;0.00;0.00;;;;;17.11;56.86;101801.50;5036503;28;45262;-56
2022/05/26 07:31:52;;;;;;;;;0.00;0.00;;;;;17.39;56.99;101855.59;5036637;28;45354;-57
2022/05/26 07:34:18;;;;;;;;;2.75;0.00;;;;;17.53;58.08;101855.44;5035853;28;45302;-53
2022/05/26 07:42:14;;;;;;;;;0.00;0.00;;;;;17.82;56.14;101859.34;5035309;28;45390;-50
2022/05/26 07:44:44;;;;;;;;;0.00;0.00;;;;;17.50;56.79;101828.19;5006082;28;45909;-53
2022/05/26 07:47:10;;;;;;;;;0.40;0.40;;;;;17.59;58.92;101876.72;5017972;28;45851;-53
2022/05/26 07:49:41;;;;;;;;;0.00;0.00;;;;;17.44;60.19;101877.09;5033035;28;45972;-52
2022/05/26 07:52:07;;;;;;;;;0.00;0.00;;;;;17.37;60.96;101884.66;5039009;28;45792;-54
2022/05/26 07:54:32;;;;;;;;;0.00;0.00;;;;;17.33;60.41;101879.59;5031458;28;45831;-54
2022/05/26 07:56:58;;;;;;;;;0.00;0.00;;;;;17.29;61.14;101871.97;5031279;28;45389;-48
2022/05/26 07:59:24;;;;;;;;;1.00;1.00;;;;;17.41;60.48;101895.09;5030205;28;45430;-50
2022/05/26 08:01:49;;;;;;;;;0.00;0.00;;;;;17.37;60.40;101862.47;5043248;28;45489;-54
2022/05/26 08:04:15;;;;;;;;;0.00;0.00;;;;;17.30;59.61;101851.47;5041865;28;45455;-53
2022/05/26 08:06:45;;;;;;;;;0.60;0.60;;;;;17.54;59.69;101888.53;5031437;28;45460;-54
2022/05/26 08:09:11;;;;;;;;;0.00;0.00;;;;;17.55;59.54;101889.41;5031740;28;45559;-49
2022/05/26 08:11:37;;;;;;;;;0.00;0.00;;;;;17.50;59.70;101892.00;5009287;28;45911;-53
2022/05/26 08:14:02;;;;;;;;;0.00;0.00;;;;;17.40;61.10;101898.09;5023893;28;46759;-55
2022/05/26 08:16:31;;;;;;;;;2.75;1.00;;;;;17.17;62.44;101908.78;5031380;28;45510;-52
2022/05/26 08:18:57;;;;;;;;;1.00;1.00;;;;;16.90;62.11;101888.72;5030594;28;45477;-53
2022/05/26 08:21:22;;;;;;;;;1.50;1.00;;;;;16.52;62.90;101821.22;5033474;28;45408;-54
2022/05/26 08:23:48;;;;;;;;;1.50;0.50;;;;;17.04;63.21;101918.03;5041019;28;45936;-52
2022/05/26 08:26:14;;;;;;;;;1.00;1.00;;;;;17.13;62.95;101909.47;5043412;28;45733;-53
2022/05/26 08:28:41;;;;;;;;;1.00;0.25;;;;;17.30;62.70;101918.03;5051337;28;45534;-52
2022/05/26 08:31:09;;;;;;;;;0.40;0.40;;;;;17.07;62.67;101898.19;5037568;28;45706;-54
2022/05/26 08:33:35;;;;;;;;;1.60;1.60;;;;;17.19;62.92;101914.94;5031129;28;46144;-53
2022/05/26 08:36:04;;;;;;;;;0.25;0.25;;;;;17.34;62.62;101922.03;5031327;28;45380;-54
2022/05/26 08:38:29;;;;;;;;;2.00;2.00;;;;;17.36;61.52;101919.03;5044104;28;45406;-51
2022/05/26 08:40:55;;;;;;;;;2.25;2.25;;;;;17.10;61.22;101893.25;5039086;28;46158;-53
2022/05/26 08:43:24;;;;;;;;;3.00;3.00;;;;;17.36;61.00;101905.16;5031260;28;47032;-51
2022/05/26 08:45:50;;;;;;;;;4.00;2.40;;;;;17.45;60.88;101918.50;5003942;28;45814;-56
2022/05/26 08:48:39;;;;;;;;;2.40;2.40;;;;;17.46;60.33;101908.28;5031288;28;45481;-56
2022/05/26 08:51:05;;;;;;;;;0.00;0.00;;;;;17.55;59.96;101923.53;5029222;28;45488;-56
2022/05/26 08:53:35;;;;;;;;;3.60;3.60;;;;;17.54;60.27;101930.16;5029987;28;48503;-53
2022/05/26 08:56:03;;;;;;;;;2.00;1.00;;;;;17.59;59.27;101921.16;5013414;28;45769;-52
2022/05/26 08:58:36;;;;;;;;;1.20;1.20;;;;;17.72;58.71;101909.06;5029761;28;45542;-53
2022/05/26 09:01:02;;;;;;;;;1.00;1.00;;;;;17.92;58.18;101922.69;5013537;28;45818;-54
2022/05/26 09:03:33;;;;;;;;;1.60;1.60;;;;;18.03;57.24;101926.59;5044533;28;46610;-52
2022/05/26 09:06:18;;;;;;;;;1.00;1.00;;;;;18.13;57.17;101928.84;5045821;28;45693;-55
2022/05/26 09:12:55;;;;;;;;;1.00;1.00;;;;;18.23;56.54;101928.28;5024309;28;46694;-55
2022/05/26 09:14:33;;;;;;;;;1.00;1.00;;;;;18.33;54.39;101928.59;5038256;28;45411;-51
2022/05/26 09:17:06;;;;;;;;;3.40;2.40;;;;;18.44;55.18;101915.81;5047743;28;45795;-52
2022/05/26 09:19:46;;;;;;;;;1.60;0.60;;;;;18.57;55.11;101923.09;5031303;28;45818;-55
2022/05/26 09:22:41;;;;;;;;;1.00;1.00;;;;;18.61;54.90;101924.31;5043673;28;45494;-54
2022/05/26 09:25:52;;;;;;;;;2.80;1.60;;;;;18.52;55.10;101932.16;5052875;28;46022;-52
2022/05/26 09:28:49;;;;;;;;;3.00;2.00;;;;;18.43;55.25;101939.13;5010620;28;45435;-56
2022/05/26 09:31:31;;;;;;;;;2.80;2.80;;;;;18.35;54.91;101943.09;5011431;28;45784;-55
2022/05/26 09:34:21;;;;;;;;;2.00;2.00;;;;;18.36;55.26;101949.50;5014353;28;45529;-54
2022/05/26 09:37:00;;;;;;;;;2.20;1.60;;;;;18.36;54.57;101950.34;5013830;28;45460;-54
2022/05/26 09:39:30;;;;;;;;;3.40;1.60;;;;;18.29;53.93;101955.13;5027417;28;45473;-56
2022/05/26 09:41:58;;;;;;;;;2.60;1.40;;;;;18.37;53.82;101959.53;5033984;28;45455;-54
2022/05/26 09:44:35;;;;;;;;;1.80;0.40;;;;;18.38;52.31;101953.75;5022970;28;45455;-54
2022/05/26 09:47:20;;;;;;;;;1.80;1.80;;;;;18.45;53.48;101972.28;5012394;28;46401;-55
2022/05/26 09:49:49;;;;;;;;;1.00;1.00;;;;;18.60;52.71;101961.56;5004284;28;45555;-53
2022/05/26 09:52:23;;;;;;;;;1.00;1.00;;;;;18.75;52.15;101963.03;5013458;28;45485;-48
2022/05/26 09:55:04;;;;;;;;;0.20;0.20;;;;;18.72;52.02;101932.94;5010728;28;45818;-54
2022/05/26 09:57:30;;;;;;;;;0.80;0.80;;;;;19.01;51.82;101967.34;5011561;28;46593;-55
2022/05/26 09:59:55;;;;;;;;;1.00;1.00;;;;;19.04;51.68;101972.47;5013324;28;45512;-48
2022/05/26 10:02:36;;;;;;;;;0.25;0.25;;;;;18.92;50.96;101954.84;4998422;28;45462;-53
2022/05/26 10:05:03;;;;;;;;;0.60;0.60;;;;;17.94;51.32;101864.13;5033442;28;45534;-54
2022/05/26 10:08:26;;;;;;;;;1.00;0.00;;;;;18.45;52.15;101959.19;5018739;28;45770;-55
2022/05/26 10:11:17;;;;;;;;;0.00;0.00;;;;;18.66;52.28;101966.16;4969713;28;45474;-50
2022/05/26 10:14:15;;;;;;;;;0.60;0.00;;;;;18.46;52.01;101927.53;4984368;28;45866;-48
2022/05/26 10:16:45;;;;;;;;;0.40;0.40;;;;;18.79;51.61;101967.06;4979302;28;45466;-49
2022/05/26 10:19:44;;;;;;;;;0.20;0.20;;;;;18.86;51.75;101981.72;4980313;28;46946;-53
2022/05/26 10:22:22;;;;;;;;;2.80;1.80;;;;;18.83;51.78;101979.38;4994111;28;45770;-53
2022/05/26 10:24:55;;;;;;;;;0.60;0.60;;;;;18.92;51.55;101969.63;5023434;28;45475;-48
2022/05/26 10:27:46;;;;;;;;;1.00;1.00;;;;;19.10;51.30;101970.63;5014859;28;45693;-53
2022/05/26 10:30:29;;;;;;;;;1.00;1.00;;;;;19.30;50.80;101967.53;4993430;28;46509;-54
2022/05/26 10:32:57;;;;;;;;;0.00;0.00;;;;;19.29;50.32;101967.75;4993664;28;45492;-52
2022/05/26 10:35:33;;;;;;;;;1.00;1.00;;;;;19.30;51.25;101963.88;4992862;28;45743;-50
2022/05/26 10:38:24;;;;;;;;;3.80;2.60;;;;;19.14;51.19;101943.19;5010068;28;45916;-51
2022/05/26 10:41:01;;;;;;;;;3.00;1.80;;;;;19.33;51.13;101980.94;5010476;28;45849;-49
2022/05/26 10:43:47;;;;;;;;;2.60;1.80;;;;;19.14;50.69;101944.03;5011679;28;45507;-55
2022/05/26 10:46:13;;;;;;;;;2.20;1.00;;;;;19.34;50.75;101957.63;5001447;28;45380;-49
2022/05/26 10:48:41;;;;;;;;;2.25;1.00;;;;;19.51;50.54;101976.34;5019073;28;45744;-53
2022/05/26 10:51:13;;;;;;;;;1.00;1.00;;;;;19.62;50.63;101981.09;5021116;28;46429;-53
2022/05/26 10:53:54;;;;;;;;;3.20;2.00;;;;;19.82;50.16;101979.84;5016279;28;45493;-53
2022/05/26 10:56:28;;;;;;;;;0.60;0.60;;;;;19.77;49.64;101943.53;5000620;28;45386;-49
2022/05/26 10:58:59;;;;;;;;;1.40;1.40;;;;;19.98;49.43;101969.06;5026416;28;45559;-51
2022/05/26 11:01:28;;;;;;;;;2.20;1.80;;;;;20.03;49.61;101975.59;5018996;28;45472;-49
2022/05/26 11:03:55;;;;;;;;;1.20;1.20;;;;;19.95;48.99;101962.03;5035129;28;45753;-50
2022/05/26 11:06:26;;;;;;;;;1.20;1.20;;;;;19.95;49.00;101969.53;5018986;28;45496;-53
2022/05/26 11:08:57;;;;;;;;;0.60;0.60;;;;;19.95;48.52;101975.09;5019447;28;45320;-47
2022/05/26 11:11:31;;;;;;;;;0.60;0.60;;;;;19.68;48.77;101920.78;5035143;28;48652;-48
2022/05/26 11:17:23;;;;;;;;;1.00;1.00;;;;;19.88;48.79;101931.53;5036456;28;45321;-51
2022/05/26 11:19:50;;;;;;;;;0.60;0.60;;;;;20.19;48.60;101948.06;5005035;28;45344;-55
2022/05/26 11:22:16;;;;;;;;;1.00;1.00;;;;;20.23;47.63;101949.22;4985947;28;46781;-55
2022/05/26 11:24:47;;;;;;;;;0.75;0.75;;;;;20.27;48.07;101944.03;5007006;28;45374;-54
2022/05/26 11:27:21;;;;;;;;;1.60;0.80;;;;;20.17;47.43;101931.56;4999413;28;45508;-60
2022/05/26 11:29:51;;;;;;;;;0.40;0.40;;;;;20.17;47.91;101939.94;5012274;28;45553;-57
2022/05/26 11:38:23;;;;;;;;;1.60;1.60;;;;;20.42;47.30;101943.47;5031115;28;45953;-52
2022/05/26 11:41:03;;;;;;;;;1.00;1.00;;;;;20.38;46.63;101940.31;5014809;28;45769;-55
2022/05/26 11:43:35;;;;;;;;;1.00;1.00;;;;;20.39;46.68;101927.25;5009874;28;45476;-51
2022/05/26 11:46:01;;;;;;;;;1.60;1.00;;;;;20.48;46.22;101936.88;4999663;28;45445;-52
2022/05/26 11:48:32;;;;;;;;;1.75;1.75;;;;;20.26;46.72;101900.50;4993631;28;45390;-57
2022/05/26 11:51:25;;;;;;;;;1.00;1.00;;;;;20.44;46.75;101939.34;5010561;28;45616;-53
2022/05/26 11:53:51;;;;;;;;;1.60;1.40;;;;;20.65;46.67;101950.03;5011527;28;47176;-53
2022/05/26 11:56:25;;;;;;;;;0.75;0.25;;;;;20.74;46.71;101922.59;5027415;28;45506;-52
2022/05/26 11:59:45;;;;;;;;;0.60;0.60;;;;;21.06;46.45;101941.53;5030734;28;45831;-55
2022/05/26 12:02:16;;;;;;;;;1.00;1.00;;;;;21.01;46.19;101936.72;5039256;28;45822;-50
2022/05/26 12:04:43;;;;;;;;;1.20;1.20;;;;;21.01;46.57;101949.84;5013905;28;45513;-54
2022/05/26 12:07:15;;;;;;;;;1.60;1.60;;;;;21.06;46.36;101944.31;4998551;28;45523;-56
2022/05/26 12:09:54;;;;;;;;;0.40;0.40;;;;;21.18;46.41;101930.31;5031306;28;45828;-55
2022/05/26 12:12:19;;;;;;;;;0.20;0.20;;;;;21.22;46.21;101929.53;5013924;28;45456;-55
2022/05/26 12:14:48;;;;;;;;;0.25;0.25;;;;;21.30;46.17;101933.84;5030678;28;46198;-59
2022/05/26 12:17:34;;;;;;;;;2.00;1.00;;;;;21.26;45.88;101939.09;5031004;28;45449;-55